Norwegian Star — C6FR3 — position and weather

sailwx.info

Track history (hours):
 
Tides and Currents Weather Stations Pressure Air Temp Water Temp Dewpoint Dewpoint Depression Visibility Wind Speed Wind Dir Waves Ship Positions

Norwegian Star

Operator: Norwegian Cruise Line

Last reported at 2020-Oct-09 21:00 UTC. Time now 2020-Oct-30 17:18 UTC.
Position N 42°06' E 011°46'.
Warning: this ship's position is 20 days out of date.

Type: Passenger vessel. MMSI: 311082000.

Date/timePositionNaut miles runAvg speedWind from/ knotsBaromVisibWave heightAir tempDewpointWater temp
2020-Oct-09 21:00N 42°06' E 011°46'0 0.0
2020-Oct-08 19:27N 42°06' E 011°46'0 0.0
2020-Oct-08 18:12N 42°06' E 011°46'  
2020-Oct-04 11:59N 40°30' E 013°51'3 7.2
2020-Oct-04 11:30N 40°32' E 013°54'7 7.1
2020-Oct-04 10:30N 40°37' E 014°01'7 7.0
2020-Oct-04 09:30N 40°41' E 014°08'3 6.2
2020-Oct-04 09:00N 40°43' E 014°11'6 1.9
2020-Oct-04 06:00N 40°48' E 014°15'0 0.0
2020-Oct-04 05:30N 40°48' E 014°15'0 0.0
2020-Oct-04 04:27N 40°48' E 014°15'0 0.0
2020-Oct-04 04:00N 40°48' E 014°15'0 0.0
2020-Oct-04 03:30N 40°48' E 014°15'0 0.0
2020-Oct-04 00:00N 40°48' E 014°15'0 0.1
2020-Oct-03 22:30N 40°48' E 014°15'0 0.0
2020-Oct-03 21:00N 40°48' E 014°15'0 0.1
2020-Oct-03 20:00N 40°48' E 014°15'0 0.0
2020-Oct-03 15:57N 40°48' E 014°15'0 0.1
2020-Oct-03 15:27N 40°48' E 014°15'0 0.0
2020-Oct-03 12:00N 40°48' E 014°15'0 0.1
2020-Oct-03 11:30N 40°48' E 014°15'0 0.0
2020-Oct-03 09:30N 40°48' E 014°15'0 0.0
2020-Oct-03 09:00N 40°48' E 014°15'0 0.0
2020-Oct-03 08:00N 40°48' E 014°15'0 0.1
2020-Oct-03 07:30N 40°48' E 014°15'0 0.1
2020-Oct-03 07:00N 40°48' E 014°15'0 0.0
2020-Oct-03 05:30N 40°48' E 014°15'0 0.1
2020-Oct-03 04:27N 40°48' E 014°15'0 0.1
2020-Oct-03 03:30N 40°48' E 014°15'0 0.0
2020-Oct-03 02:30N 40°48' E 014°15'0 0.0
2020-Oct-03 00:00N 40°48' E 014°15'0 0.0
2020-Oct-02 22:00N 40°48' E 014°15'11 1.1
2020-Oct-02 12:30N 40°40' E 014°07'12 8.2
2020-Oct-02 11:00N 40°34' E 013°52'  
Track history (hours):
 
Tides and Currents Weather Stations Pressure Air Temp Water Temp Dewpoint Dewpoint Depression Visibility Wind Speed Wind Dir Waves Ship Positions

Norwegian Star

Operator: Norwegian Cruise Line

Last reported at 2020-Oct-09 21:00 UTC. Time now 2020-Oct-30 17:18 UTC.
Position N 42°06' E 011°46'.
Warning: this ship's position is 20 days out of date.

Type: Passenger vessel. MMSI: 311082000.

Date/timePositionNaut miles runAvg speedWind from/ knotsBaromVisibWave heightAir tempDewpointWater temp
2020-Oct-09 21:00N 42°06' E 011°46'0 0.0
2020-Oct-08 19:27N 42°06' E 011°46'0 0.0
2020-Oct-08 18:12N 42°06' E 011°46'  
2020-Oct-04 11:59N 40°30' E 013°51'3 7.2
2020-Oct-04 11:30N 40°32' E 013°54'7 7.1
2020-Oct-04 10:30N 40°37' E 014°01'7 7.0
2020-Oct-04 09:30N 40°41' E 014°08'3 6.2
2020-Oct-04 09:00N 40°43' E 014°11'6 1.9
2020-Oct-04 06:00N 40°48' E 014°15'0 0.0
2020-Oct-04 05:30N 40°48' E 014°15'0 0.0
2020-Oct-04 04:27N 40°48' E 014°15'0 0.0
2020-Oct-04 04:00N 40°48' E 014°15'0 0.0
2020-Oct-04 03:30N 40°48' E 014°15'0 0.0
2020-Oct-04 00:00N 40°48' E 014°15'0 0.1
2020-Oct-03 22:30N 40°48' E 014°15'0 0.0
2020-Oct-03 21:00N 40°48' E 014°15'0 0.1
2020-Oct-03 20:00N 40°48' E 014°15'0 0.0
2020-Oct-03 15:57N 40°48' E 014°15'0 0.1
2020-Oct-03 15:27N 40°48' E 014°15'0 0.0
2020-Oct-03 12:00N 40°48' E 014°15'0 0.1
2020-Oct-03 11:30N 40°48' E 014°15'0 0.0
2020-Oct-03 09:30N 40°48' E 014°15'0 0.0
2020-Oct-03 09:00N 40°48' E 014°15'0 0.0
2020-Oct-03 08:00N 40°48' E 014°15'0 0.1
2020-Oct-03 07:30N 40°48' E 014°15'0 0.1
2020-Oct-03 07:00N 40°48' E 014°15'0 0.0
2020-Oct-03 05:30N 40°48' E 014°15'0 0.1
2020-Oct-03 04:27N 40°48' E 014°15'0 0.1
2020-Oct-03 03:30N 40°48' E 014°15'0 0.0
2020-Oct-03 02:30N 40°48' E 014°15'0 0.0
2020-Oct-03 00:00N 40°48' E 014°15'0 0.0
2020-Oct-02 22:00N 40°48' E 014°15'11 1.1
2020-Oct-02 12:30N 40°40' E 014°07'12 8.2
2020-Oct-02 11:00N 40°34' E 013°52'  

Dump ship's entire track history